Time;durP1;ratioP1;P1;durP2;ratioP2;P2;SDS_P1;SDS_P2;PMS_P1;PMS_P2;Temp;Humidity;BMP_temperature;BMP_pressure;BME280_temperature;BME280_humidity;BME280_pressure;Samples;Min_cycle;Max_cycle;Signal;HPM_P1;HPM_P2
2021/08/25 00:01:47;;;;;;;2.58;1.90;;;;;;;;;;6150930;23;20002;-83
2021/08/25 00:08:18;;;;;;;1.70;1.60;;;;;;;;;;6124382;23;20005;-84
2021/08/25 00:11:16;;;;;;;3.50;2.15;;;;;;;;;;6075889;23;20006;-84
2021/08/25 00:14:15;;;;;;;4.32;2.05;;;;;;;;;;6121244;23;20002;-86
2021/08/25 00:21:42;;;;;;;2.20;1.83;;;;;;;;;;6009234;23;20003;-85
2021/08/25 00:24:51;;;;;;;2.72;1.80;;;;;;;;;;6007352;23;20006;-82
2021/08/25 00:30:15;;;;;;;4.15;2.10;;;;;;;;;;6296539;22;20023;-83
2021/08/25 00:33:16;;;;;;;2.55;2.30;;;;;;;;;;6274981;22;20468;-83
2021/08/25 00:35:52;;;;;;;2.88;1.90;;;;;;;;;;6304460;22;20012;-83
2021/08/25 00:39:31;;;;;;;3.72;2.10;;;;;;;;;;6301892;22;19999;-84
2021/08/25 00:42:48;;;;;;;2.70;2.10;;;;;;;;;;6241947;23;19992;-83
2021/08/25 00:46:02;;;;;;;2.90;2.05;;;;;;;;;;6241102;23;20008;-85
2021/08/25 00:49:19;;;;;;;2.67;2.00;;;;;;;;;;6211556;23;20001;-84
2021/08/25 00:52:22;;;;;;;2.45;2.00;;;;;;;;;;6203024;23;20063;-83
2021/08/25 00:55:31;;;;;;;4.20;2.17;;;;;;;;;;6167832;23;19981;-85
2021/08/25 00:59:07;;;;;;;2.65;2.20;;;;;;;;;;6207926;23;20099;-85
2021/08/25 01:05:42;;;;;;;2.20;2.00;;;;;;;;;;6153200;23;20082;-84
2021/08/25 01:09:06;;;;;;;4.18;2.20;;;;;;;;;;6142959;23;20013;-84
2021/08/25 01:15:53;;;;;;;2.75;1.92;;;;;;;;;;6151445;23;20004;-83
2021/08/25 01:22:31;;;;;;;3.05;2.35;;;;;;;;;;6063089;23;20022;-83
2021/08/25 01:29:10;;;;;;;4.47;2.20;;;;;;;;;;6299932;22;20011;-84
2021/08/25 01:32:21;;;;;;;2.83;2.22;;;;;;;;;;6258455;22;20019;-83
2021/08/25 01:35:39;;;;;;;3.72;2.30;;;;;;;;;;6273854;22;19990;-83
2021/08/25 01:38:50;;;;;;;2.40;2.20;;;;;;;;;;6301048;22;20004;-83
2021/08/25 01:41:56;;;;;;;3.00;2.30;;;;;;;;;;6284969;22;19998;-83
2021/08/25 01:44:42;;;;;;;3.85;2.25;;;;;;;;;;6302669;22;19999;-84
2021/08/25 01:54:48;;;;;;;2.38;2.08;;;;;;;;;;6150891;23;20029;-85
2021/08/25 01:58:02;;;;;;;4.53;2.83;;;;;;;;;;6148062;23;20022;-83
2021/08/25 02:01:06;;;;;;;4.90;2.45;;;;;;;;;;6142288;23;20005;-83
2021/08/25 02:03:42;;;;;;;3.95;2.67;;;;;;;;;;6109261;23;20102;-83
2021/08/25 02:07:04;;;;;;;6.32;2.38;;;;;;;;;;6101492;23;20181;-84
2021/08/25 02:14:17;;;;;;;2.45;2.25;;;;;;;;;;6113340;23;20000;-85
2021/08/25 02:17:35;;;;;;;2.30;2.10;;;;;;;;;;6062999;23;20037;-83
2021/08/25 02:20:49;;;;;;;2.88;2.40;;;;;;;;;;6074246;23;20046;-85
2021/08/25 02:24:10;;;;;;;3.33;2.45;;;;;;;;;;6068229;23;20007;-84
2021/08/25 02:30:33;;;;;;;3.25;2.13;;;;;;;;;;6126343;23;20076;-83
2021/08/25 02:33:22;;;;;;;3.22;2.58;;;;;;;;;;6101612;23;20010;-83
2021/08/25 02:36:26;;;;;;;5.30;2.05;;;;;;;;;;6148231;23;20005;-84
2021/08/25 02:39:15;;;;;;;2.92;2.38;;;;;;;;;;6150198;23;20002;-85
2021/08/25 02:42:13;;;;;;;5.35;2.33;;;;;;;;;;6177315;23;20040;-83
2021/08/25 02:45:13;;;;;;;3.47;2.45;;;;;;;;;;6175501;23;20024;-84
2021/08/25 02:48:38;;;;;;;4.75;2.78;;;;;;;;;;6145790;23;20029;-85
2021/08/25 02:55:16;;;;;;;5.45;2.92;;;;;;;;;;6092228;23;20021;-83
2021/08/25 02:58:45;;;;;;;2.80;2.33;;;;;;;;;;6070868;23;20011;-84
2021/08/25 03:01:43;;;;;;;3.08;2.50;;;;;;;;;;6063463;23;20016;-84
2021/08/25 03:05:35;;;;;;;3.25;2.63;;;;;;;;;;6065010;23;20051;-84
2021/08/25 03:09:03;;;;;;;4.00;2.63;;;;;;;;;;5985145;24;20004;-84
2021/08/25 03:11:59;;;;;;;2.85;2.55;;;;;;;;;;6006432;24;20047;-84
2021/08/25 03:14:54;;;;;;;5.10;3.28;;;;;;;;;;5984040;24;20000;-83
2021/08/25 03:18:33;;;;;;;3.10;2.80;;;;;;;;;;5991069;24;20060;-83
2021/08/25 03:21:34;;;;;;;4.22;2.90;;;;;;;;;;6009071;23;20000;-83
2021/08/25 03:25:09;;;;;;;4.95;3.10;;;;;;;;;;6008326;24;20004;-83
2021/08/25 03:28:26;;;;;;;4.72;3.10;;;;;;;;;;6000150;24;20013;-83
2021/08/25 03:31:07;;;;;;;3.72;3.00;;;;;;;;;;5999650;23;20024;-83
2021/08/25 03:34:30;;;;;;;5.00;3.13;;;;;;;;;;6013162;23;20023;-83
2021/08/25 03:37:39;;;;;;;5.65;2.92;;;;;;;;;;6115222;23;20042;-83
2021/08/25 03:40:50;;;;;;;3.85;2.75;;;;;;;;;;6181047;23;20044;-83
2021/08/25 03:43:30;;;;;;;3.58;3.10;;;;;;;;;;6176830;23;20040;-83
2021/08/25 03:46:06;;;;;;;4.28;3.40;;;;;;;;;;6178154;23;19998;-83
2021/08/25 03:48:36;;;;;;;4.30;3.35;;;;;;;;;;6178508;23;20036;-83
2021/08/25 03:51:41;;;;;;;5.15;3.22;;;;;;;;;;6172612;23;20372;-83
2021/08/25 03:54:20;;;;;;;5.65;3.28;;;;;;;;;;6105989;23;20061;-83
2021/08/25 03:57:08;;;;;;;3.58;3.05;;;;;;;;;;6209128;23;20016;-84
2021/08/25 04:00:25;;;;;;;3.65;3.20;;;;;;;;;;6101711;23;20010;-83
2021/08/25 04:03:01;;;;;;;4.25;3.30;;;;;;;;;;6112214;23;20010;-82
2021/08/25 04:05:33;;;;;;;4.22;3.10;;;;;;;;;;6115547;23;20057;-83
2021/08/25 04:08:05;;;;;;;4.03;3.50;;;;;;;;;;6066061;23;20007;-83
2021/08/25 04:17:08;;;;;;;5.97;3.30;;;;;;;;;;6150799;23;20024;-83
2021/08/25 04:27:41;;;;;;;5.38;3.88;;;;;;;;;;6064465;23;20018;-83
2021/08/25 04:30:44;;;;;;;3.58;3.20;;;;;;;;;;6037377;23;20003;-84
2021/08/25 04:37:52;;;;;;;4.45;3.47;;;;;;;;;;6079297;23;20519;-85
2021/08/25 04:40:59;;;;;;;4.68;3.60;;;;;;;;;;6066741;23;19998;-83
2021/08/25 04:43:31;;;;;;;6.22;3.45;;;;;;;;;;6090627;23;20026;-83
2021/08/25 04:46:43;;;;;;;4.03;3.55;;;;;;;;;;6043868;23;20005;-83
2021/08/25 04:49:53;;;;;;;4.10;3.70;;;;;;;;;;6088129;23;20030;-82
2021/08/25 04:52:33;;;;;;;4.80;3.60;;;;;;;;;;6088436;23;20034;-83
2021/08/25 04:55:19;;;;;;;;;;;;;;;;;;6068046;23;20007;-84
2021/08/25 04:58:30;;;;;;;4.43;3.70;;;;;;;;;;6142029;23;19940;-84
2021/08/25 05:01:29;;;;;;;4.60;3.95;;;;;;;;;;6211464;23;20011;-82
2021/08/25 05:04:02;;;;;;;4.53;3.53;;;;;;;;;;6198846;23;20000;-85
2021/08/25 05:06:42;;;;;;;4.63;4.20;;;;;;;;;;6271505;23;20003;-82
2021/08/25 05:09:38;;;;;;;7.80;4.43;;;;;;;;;;6269580;23;19996;-86
2021/08/25 05:12:16;;;;;;;5.15;4.65;;;;;;;;;;6244534;22;20024;-86
2021/08/25 05:15:46;;;;;;;9.30;4.53;;;;;;;;;;6248078;23;19991;-86
2021/08/25 05:18:46;;;;;;;5.88;4.53;;;;;;;;;;6121109;23;20018;-84
2021/08/25 05:24:01;;;;;;;8.40;4.55;;;;;;;;;;6267366;22;20058;-83
2021/08/25 05:26:36;;;;;;;6.65;4.70;;;;;;;;;;6262797;22;20015;-83
2021/08/25 05:29:35;;;;;;;6.57;4.95;;;;;;;;;;6270646;23;20000;-84
2021/08/25 05:32:32;;;;;;;8.50;5.15;;;;;;;;;;6204466;23;20000;-84
2021/08/25 05:35:57;;;;;;;5.95;4.72;;;;;;;;;;6195916;23;19991;-87
2021/08/25 05:45:48;;;;;;;8.27;5.25;;;;;;;;;;6295310;22;20025;-87
2021/08/25 05:49:03;;;;;;;9.88;5.22;;;;;;;;;;6303485;22;20000;-87
2021/08/25 05:52:00;;;;;;;9.25;4.93;;;;;;;;;;6300658;22;19979;-86
2021/08/25 06:03:34;;;;;;;6.10;5.13;;;;;;;;;;6281660;22;20019;-86
2021/08/25 06:10:26;;;;;;;6.20;4.97;;;;;;;;;;6303862;22;20003;-87
2021/08/25 06:13:49;;;;;;;6.03;5.35;;;;;;;;;;6180733;23;19989;-86
2021/08/25 06:26:41;;;;;;;8.55;6.05;;;;;;;;;;6206437;22;20034;-82
2021/08/25 06:38:43;;;;;;;7.90;5.65;;;;;;;;;;6269317;22;20265;-86
2021/08/25 06:44:46;;;;;;;7.53;6.05;;;;;;;;;;6274710;22;20039;-85
2021/08/25 06:48:04;;;;;;;8.88;6.07;;;;;;;;;;6207833;23;20017;-86
2021/08/25 06:56:13;;;;;;;8.88;5.80;;;;;;;;;;6227259;22;20016;-82
2021/08/25 06:58:39;;;;;;;6.40;5.55;;;;;;;;;;6291142;22;20022;-82
2021/08/25 07:01:05;;;;;;;10.13;6.75;;;;;;;;;;6288737;22;19995;-81
2021/08/25 07:03:30;;;;;;;8.80;6.45;;;;;;;;;;6284438;22;19999;-81
2021/08/25 07:05:56;;;;;;;7.07;6.35;;;;;;;;;;6258188;22;19992;-82
2021/08/25 07:08:23;;;;;;;7.05;6.05;;;;;;;;;;6285748;22;19992;-80
2021/08/25 07:10:50;;;;;;;6.65;6.00;;;;;;;;;;6285458;22;19996;-82
2021/08/25 07:13:16;;;;;;;7.18;5.72;;;;;;;;;;6259145;22;20003;-82
2021/08/25 07:15:43;;;;;;;5.65;5.10;;;;;;;;;;6285276;22;20004;-81
2021/08/25 07:18:10;;;;;;;9.18;5.60;;;;;;;;;;6284795;22;20023;-81
2021/08/25 07:20:36;;;;;;;6.35;5.43;;;;;;;;;;6284182;22;19996;-81
2021/08/25 07:23:01;;;;;;;7.22;5.43;;;;;;;;;;6284979;22;20109;-81
2021/08/25 07:25:28;;;;;;;7.60;6.03;;;;;;;;;;6283955;22;19995;-82
2021/08/25 07:27:56;;;;;;;8.27;5.63;;;;;;;;;;6255603;22;20004;-82
2021/08/25 07:30:22;;;;;;;6.07;5.15;;;;;;;;;;6282854;22;20000;-82
2021/08/25 07:32:48;;;;;;;8.77;5.30;;;;;;;;;;6256172;22;20000;-81
2021/08/25 07:35:14;;;;;;;6.25;5.20;;;;;;;;;;6282976;22;20000;-83
2021/08/25 15:06:45;;;;;;;3.40;2.92;;;;;;;;;;6273368;22;20022;-91
2021/08/25 15:09:11;;;;;;;3.15;2.50;;;;;;;;;;6252304;22;20012;-92
2021/08/25 15:11:36;;;;;;;3.20;2.65;;;;;;;;;;6252157;22;19999;-93
2021/08/25 15:14:02;;;;;;;3.08;2.45;;;;;;;;;;6252294;22;20031;-93
2021/08/25 15:16:32;;;;;;;3.88;2.33;;;;;;;;;;6251399;22;20350;-93
2021/08/25 15:18:58;;;;;;;2.53;2.20;;;;;;;;;;6251565;22;20000;-93
2021/08/25 15:21:24;;;;;;;2.63;2.42;;;;;;;;;;6252161;22;20368;-93
2021/08/25 15:23:50;;;;;;;5.65;2.50;;;;;;;;;;6251718;22;20026;-91
2021/08/25 15:26:17;;;;;;;5.28;2.40;;;;;;;;;;6251454;22;20045;-90
2021/08/25 15:28:44;;;;;;;3.55;2.38;;;;;;;;;;6251712;22;20167;-92
2021/08/25 15:31:10;;;;;;;4.20;2.70;;;;;;;;;;6251659;22;20453;-93
2021/08/25 15:33:37;;;;;;;2.42;2.22;;;;;;;;;;6252059;22;20000;-93
2021/08/25 15:36:04;;;;;;;3.28;2.47;;;;;;;;;;6251419;22;20031;-93
2021/08/25 15:38:30;;;;;;;4.47;2.05;;;;;;;;;;6251663;22;20071;-94
2021/08/25 15:40:55;;;;;;;2.08;1.88;;;;;;;;;;6252059;22;20027;-92
2021/08/25 15:43:22;;;;;;;5.05;2.65;;;;;;;;;;6251517;22;20389;-91
2021/08/25 15:45:49;;;;;;;3.17;2.05;;;;;;;;;;6251301;22;20571;-92
2021/08/25 15:48:17;;;;;;;4.50;2.78;;;;;;;;;;6251272;22;20037;-92
2021/08/25 15:50:43;;;;;;;4.22;2.20;;;;;;;;;;6250461;22;20006;-93
2021/08/25 15:53:08;;;;;;;2.33;2.13;;;;;;;;;;6251156;22;20000;-91
2021/08/25 15:55:34;;;;;;;2.30;2.10;;;;;;;;;;6251425;22;20007;-93
2021/08/25 15:58:19;;;;;;;2.60;2.20;;;;;;;;;;6251567;22;19999;-93
2021/08/25 16:00:45;;;;;;;2.78;2.28;;;;;;;;;;6251523;22;20000;-92
2021/08/25 16:03:10;;;;;;;5.38;2.47;;;;;;;;;;6251688;22;20004;-92
2021/08/25 16:05:36;;;;;;;4.18;2.22;;;;;;;;;;6250505;22;20093;-91
2021/08/25 16:08:01;;;;;;;2.35;2.13;;;;;;;;;;6250642;22;20003;-89
2021/08/25 16:10:32;;;;;;;2.78;2.20;;;;;;;;;;6250417;22;20074;-91
2021/08/25 16:13:00;;;;;;;2.40;2.20;;;;;;;;;;6250375;22;20000;-90
2021/08/25 16:15:31;;;;;;;3.13;2.25;;;;;;;;;;6250101;22;20445;-91
2021/08/25 16:17:57;;;;;;;2.10;1.90;;;;;;;;;;6250069;22;20057;-91
2021/08/25 16:20:22;;;;;;;3.05;2.25;;;;;;;;;;6249444;22;20003;-88
2021/08/25 16:22:48;;;;;;;2.72;2.10;;;;;;;;;;6276643;22;19999;-89
2021/08/25 16:25:13;;;;;;;2.95;2.35;;;;;;;;;;6249877;22;20014;-88
2021/08/25 16:27:39;;;;;;;3.85;1.95;;;;;;;;;;6250062;22;20090;-89
2021/08/25 16:30:05;;;;;;;5.00;2.70;;;;;;;;;;6276085;22;20011;-89
2021/08/25 16:32:30;;;;;;;3.70;2.13;;;;;;;;;;6276619;22;19996;-89
2021/08/25 16:34:56;;;;;;;2.22;1.90;;;;;;;;;;6249087;22;20010;-89
2021/08/25 16:37:22;;;;;;;5.18;2.10;;;;;;;;;;6249546;22;20086;-91
2021/08/25 16:39:50;;;;;;;2.55;2.10;;;;;;;;;;6247732;22;20430;-91
2021/08/25 16:42:17;;;;;;;2.88;2.30;;;;;;;;;;6250124;22;20082;-90
2021/08/25 16:44:53;;;;;;;4.30;2.33;;;;;;;;;;6249190;22;20445;-89
2021/08/25 16:47:19;;;;;;;2.30;2.10;;;;;;;;;;6248174;22;20003;-90
2021/08/25 16:49:44;;;;;;;4.50;2.20;;;;;;;;;;6273238;22;20000;-89
2021/08/25 16:52:10;;;;;;;4.43;2.45;;;;;;;;;;6249349;22;20058;-91
2021/08/25 16:54:35;;;;;;;2.63;2.15;;;;;;;;;;6248874;22;20000;-88
2021/08/25 16:57:01;;;;;;;2.78;2.10;;;;;;;;;;6247442;22;20518;-91
2021/08/25 16:59:30;;;;;;;3.35;2.00;;;;;;;;;;6248540;22;20417;-90
2021/08/25 17:01:55;;;;;;;4.85;2.35;;;;;;;;;;6247927;22;20000;-89
2021/08/25 17:04:29;;;;;;;3.40;2.30;;;;;;;;;;6247167;22;20323;-88
2021/08/25 17:06:55;;;;;;;2.30;2.10;;;;;;;;;;6273248;22;20038;-89
2021/08/25 17:09:22;;;;;;;2.40;2.17;;;;;;;;;;6247700;22;20433;-88
2021/08/25 17:11:49;;;;;;;2.50;2.30;;;;;;;;;;6247347;22;20000;-88
2021/08/25 17:14:15;;;;;;;7.07;2.15;;;;;;;;;;6247055;22;20023;-89
2021/08/25 17:16:41;;;;;;;3.78;1.85;;;;;;;;;;6245723;22;20377;-91
2021/08/25 17:19:09;;;;;;;3.30;2.28;;;;;;;;;;6248143;22;20014;-89
2021/08/25 17:21:35;;;;;;;2.92;2.40;;;;;;;;;;6274680;22;20038;-88
2021/08/25 17:24:00;;;;;;;2.88;2.58;;;;;;;;;;6246854;22;20014;-89
2021/08/25 17:26:26;;;;;;;2.67;2.13;;;;;;;;;;6247182;22;20421;-91
2021/08/25 17:28:51;;;;;;;3.67;2.63;;;;;;;;;;6247536;22;20352;-89
2021/08/25 17:31:17;;;;;;;3.92;2.30;;;;;;;;;;6275545;22;19999;-90
2021/08/25 17:33:48;;;;;;;3.22;2.25;;;;;;;;;;6275512;22;20003;-90
2021/08/25 17:36:20;;;;;;;5.22;2.08;;;;;;;;;;6275278;22;20031;-90
2021/08/25 17:38:47;;;;;;;5.15;4.10;;;;;;;;;;6275341;22;19999;-90
2021/08/25 17:41:14;;;;;;;3.45;2.90;;;;;;;;;;6248497;22;20437;-92
2021/08/25 17:43:40;;;;;;;3.65;2.67;;;;;;;;;;6275346;22;20007;-91
2021/08/25 17:46:06;;;;;;;3.47;2.30;;;;;;;;;;6247250;22;20000;-89
2021/08/25 17:48:32;;;;;;;3.05;2.50;;;;;;;;;;6247315;22;20004;-88
2021/08/25 17:50:58;;;;;;;3.63;2.53;;;;;;;;;;6276012;22;19995;-88
2021/08/25 17:53:25;;;;;;;2.75;2.42;;;;;;;;;;6252200;22;20094;-88
2021/08/25 18:01:31;;;;;;;5.50;2.97;;;;;;;;;;6246294;22;20031;-82
2021/08/25 18:03:57;;;;;;;3.75;2.72;;;;;;;;;;6245970;23;20000;-82
2021/08/25 18:06:23;;;;;;;6.03;2.60;;;;;;;;;;6246566;23;19999;-81
2021/08/25 18:08:49;;;;;;;3.30;2.75;;;;;;;;;;6249272;23;20004;-80
2021/08/25 18:11:15;;;;;;;3.45;2.70;;;;;;;;;;6225174;23;20079;-80
2021/08/25 18:48:56;;;;;;;4.60;3.00;;;;;;;;;;6264651;22;20024;-82
2021/08/25 18:51:32;;;;;;;4.38;3.03;;;;;;;;;;6288339;22;20006;-82
2021/08/25 18:54:00;;;;;;;6.15;3.30;;;;;;;;;;6262030;22;20015;-82
2021/08/25 18:56:39;;;;;;;7.28;3.38;;;;;;;;;;6288964;22;20079;-82
2021/08/25 18:59:22;;;;;;;5.15;3.38;;;;;;;;;;6275084;22;20082;-82
2021/08/25 19:02:05;;;;;;;4.50;2.97;;;;;;;;;;6284073;22;19999;-82
2021/08/25 19:04:52;;;;;;;6.25;3.03;;;;;;;;;;6287662;22;20385;-81
2021/08/25 19:07:34;;;;;;;5.55;3.47;;;;;;;;;;6265076;22;20000;-83
2021/08/25 19:10:27;;;;;;;4.40;3.60;;;;;;;;;;6289562;22;20504;-82
2021/08/25 19:13:06;;;;;;;6.57;4.05;;;;;;;;;;6267401;22;20023;-81
2021/08/25 19:16:15;;;;;;;6.22;4.30;;;;;;;;;;6270084;22;20433;-82
2021/08/25 19:22:23;;;;;;;6.93;3.67;;;;;;;;;;6200360;23;20019;-82
2021/08/25 19:24:49;;;;;;;4.63;3.30;;;;;;;;;;6166405;23;20043;-82
2021/08/25 19:27:17;;;;;;;4.57;3.47;;;;;;;;;;6195581;23;20068;-81
2021/08/25 19:29:49;;;;;;;4.57;3.55;;;;;;;;;;6171911;23;20091;-81
2021/08/25 19:32:16;;;;;;;5.47;3.30;;;;;;;;;;6193700;23;20067;-82
2021/08/25 19:34:42;;;;;;;4.63;3.50;;;;;;;;;;6168281;23;20172;-82
2021/08/25 19:37:08;;;;;;;5.15;3.38;;;;;;;;;;6193610;23;20001;-82
2021/08/25 19:39:36;;;;;;;5.93;3.33;;;;;;;;;;6195140;23;20005;-81
2021/08/25 19:42:02;;;;;;;5.97;3.70;;;;;;;;;;6168114;23;20024;-82
2021/08/25 19:44:28;;;;;;;5.55;3.80;;;;;;;;;;6196439;23;20001;-80
2021/08/25 19:46:54;;;;;;;4.93;3.35;;;;;;;;;;6190825;23;19997;-81
2021/08/25 19:49:20;;;;;;;5.90;3.60;;;;;;;;;;6192869;23;20039;-83
2021/08/25 19:51:45;;;;;;;4.95;3.70;;;;;;;;;;6192512;23;20387;-81
2021/08/25 19:54:13;;;;;;;6.10;3.72;;;;;;;;;;6193964;23;20001;-82
2021/08/25 19:56:41;;;;;;;3.88;3.20;;;;;;;;;;6261075;22;20003;-82
2021/08/25 19:59:06;;;;;;;4.03;3.30;;;;;;;;;;6288028;22;20003;-82
2021/08/25 20:01:34;;;;;;;7.00;4.30;;;;;;;;;;6284555;22;20003;-82
2021/08/25 20:03:59;;;;;;;4.50;3.63;;;;;;;;;;6285163;22;20023;-81
2021/08/25 20:06:25;;;;;;;5.57;3.58;;;;;;;;;;6258291;22;20003;-81
2021/08/25 20:08:50;;;;;;;5.82;3.85;;;;;;;;;;6286056;22;20006;-81
2021/08/25 20:11:16;;;;;;;5.50;3.38;;;;;;;;;;6258807;22;20006;-81
2021/08/25 20:13:41;;;;;;;11.15;3.97;;;;;;;;;;6286047;22;20333;-81
2021/08/25 20:16:07;;;;;;;6.40;3.88;;;;;;;;;;6284063;22;20000;-82
2021/08/25 20:18:33;;;;;;;4.38;3.30;;;;;;;;;;6285399;22;20000;-81
2021/08/25 20:20:59;;;;;;;5.55;3.50;;;;;;;;;;6283751;22;20003;-82
2021/08/25 20:23:25;;;;;;;4.53;3.53;;;;;;;;;;6285412;22;19995;-81
2021/08/25 20:25:51;;;;;;;6.93;3.75;;;;;;;;;;6282016;22;20070;-81
2021/08/25 20:28:17;;;;;;;5.10;3.53;;;;;;;;;;6256756;22;20004;-81
2021/08/25 20:30:45;;;;;;;5.60;3.63;;;;;;;;;;6282360;22;19991;-82
2021/08/25 20:33:26;;;;;;;3.80;3.25;;;;;;;;;;6281716;22;20008;-82
2021/08/25 20:35:52;;;;;;;4.18;3.47;;;;;;;;;;6257222;22;19999;-82
2021/08/25 20:38:17;;;;;;;6.05;3.40;;;;;;;;;;6281914;22;20030;-82
2021/08/25 20:40:43;;;;;;;4.85;3.15;;;;;;;;;;6281989;22;19991;-81
2021/08/25 20:43:08;;;;;;;3.95;3.50;;;;;;;;;;6282258;22;20000;-82
2021/08/25 20:45:34;;;;;;;5.28;3.45;;;;;;;;;;6284738;22;19999;-80
2021/08/25 20:47:59;;;;;;;4.68;3.38;;;;;;;;;;6283332;22;20004;-82
2021/08/25 20:57:40;;;;;;;4.03;3.40;;;;;;;;;;6303780;22;20042;-83
